sensor_id;sensor_type;location;lat;lon;timestamp;P1;durP1;ratioP1;P2;durP2;ratioP2
1360;SDS011;674;45.552;-122.600;2022-08-23T00:01:38;2.93;;;1.10;;
1360;SDS011;674;45.552;-122.600;2022-08-23T00:04:14;1.53;;;1.20;;
1360;SDS011;674;45.552;-122.600;2022-08-23T00:06:45;7.40;;;1.83;;
1360;SDS011;674;45.552;-122.600;2022-08-23T00:09:16;4.13;;;1.23;;
1360;SDS011;674;45.552;-122.600;2022-08-23T00:11:53;3.07;;;1.73;;
1360;SDS011;674;45.552;-122.600;2022-08-23T00:14:45;9.00;;;1.73;;
1360;SDS011;674;45.552;-122.600;2022-08-23T00:17:18;3.47;;;1.33;;
1360;SDS011;674;45.552;-122.600;2022-08-23T00:20:00;3.13;;;1.60;;
1360;SDS011;674;45.552;-122.600;2022-08-23T00:22:31;3.50;;;1.37;;
1360;SDS011;674;45.552;-122.600;2022-08-23T00:24:59;2.17;;;1.47;;
1360;SDS011;674;45.552;-122.600;2022-08-23T00:27:28;3.67;;;1.40;;
1360;SDS011;674;45.552;-122.600;2022-08-23T00:29:56;3.77;;;1.70;;
1360;SDS011;674;45.552;-122.600;2022-08-23T00:32:29;1.90;;;1.60;;
1360;SDS011;674;45.552;-122.600;2022-08-23T00:34:59;2.17;;;1.40;;
1360;SDS011;674;45.552;-122.600;2022-08-23T00:37:29;1.77;;;1.30;;
1360;SDS011;674;45.552;-122.600;2022-08-23T00:40:02;2.90;;;1.53;;
1360;SDS011;674;45.552;-122.600;2022-08-23T00:45:47;3.07;;;2.00;;
1360;SDS011;674;45.552;-122.600;2022-08-23T00:48:32;3.40;;;1.40;;
1360;SDS011;674;45.552;-122.600;2022-08-23T00:51:48;1.50;;;1.03;;
1360;SDS011;674;45.552;-122.600;2022-08-23T00:53:55;3.50;;;1.50;;
1360;SDS011;674;45.552;-122.600;2022-08-23T00:56:25;2.63;;;1.47;;
1360;SDS011;674;45.552;-122.600;2022-08-23T00:58:58;5.90;;;1.30;;
1360;SDS011;674;45.552;-122.600;2022-08-23T01:01:26;2.40;;;1.40;;
1360;SDS011;674;45.552;-122.600;2022-08-23T01:03:56;2.10;;;1.40;;
1360;SDS011;674;45.552;-122.600;2022-08-23T01:06:35;2.00;;;1.40;;
1360;SDS011;674;45.552;-122.600;2022-08-23T01:09:11;3.43;;;1.43;;
1360;SDS011;674;45.552;-122.600;2022-08-23T01:11:45;2.13;;;1.10;;
1360;SDS011;674;45.552;-122.600;2022-08-23T01:14:33;5.23;;;1.53;;
1360;SDS011;674;45.552;-122.600;2022-08-23T01:17:07;1.83;;;1.10;;
1360;SDS011;674;45.552;-122.600;2022-08-23T01:19:57;4.13;;;1.40;;
1360;SDS011;674;45.552;-122.600;2022-08-23T01:22:34;2.60;;;1.10;;
1360;SDS011;674;45.552;-122.600;2022-08-23T01:25:12;4.77;;;1.10;;
1360;SDS011;674;45.552;-122.600;2022-08-23T01:27:45;1.43;;;0.90;;
1360;SDS011;674;45.552;-122.600;2022-08-23T01:30:16;2.50;;;1.10;;
1360;SDS011;674;45.552;-122.600;2022-08-23T01:32:50;2.53;;;1.17;;
1360;SDS011;674;45.552;-122.600;2022-08-23T01:35:22;4.10;;;1.53;;
1360;SDS011;674;45.552;-122.600;2022-08-23T01:37:57;5.43;;;1.30;;
1360;SDS011;674;45.552;-122.600;2022-08-23T01:40:26;1.57;;;1.03;;
1360;SDS011;674;45.552;-122.600;2022-08-23T01:42:55;3.30;;;1.03;;
1360;SDS011;674;45.552;-122.600;2022-08-23T01:45:23;1.80;;;1.10;;
1360;SDS011;674;45.552;-122.600;2022-08-23T01:47:52;3.57;;;1.30;;
1360;SDS011;674;45.552;-122.600;2022-08-23T01:50:20;2.00;;;1.13;;
1360;SDS011;674;45.552;-122.600;2022-08-23T01:52:49;1.50;;;1.20;;
1360;SDS011;674;45.552;-122.600;2022-08-23T01:55:17;1.87;;;1.20;;
1360;SDS011;674;45.552;-122.600;2022-08-23T01:57:48;1.63;;;0.70;;
1360;SDS011;674;45.552;-122.600;2022-08-23T02:00:21;1.50;;;0.80;;
1360;SDS011;674;45.552;-122.600;2022-08-23T02:03:06;2.63;;;1.20;;
1360;SDS011;674;45.552;-122.600;2022-08-23T02:05:35;3.30;;;1.00;;
1360;SDS011;674;45.552;-122.600;2022-08-23T02:08:05;2.07;;;0.70;;
1360;SDS011;674;45.552;-122.600;2022-08-23T02:10:52;1.87;;;0.80;;
1360;SDS011;674;45.552;-122.600;2022-08-23T02:13:21;1.37;;;0.93;;
1360;SDS011;674;45.552;-122.600;2022-08-23T02:15:49;1.50;;;0.80;;
1360;SDS011;674;45.552;-122.600;2022-08-23T02:18:19;1.70;;;0.80;;
1360;SDS011;674;45.552;-122.600;2022-08-23T02:20:49;2.87;;;1.10;;
1360;SDS011;674;45.552;-122.600;2022-08-23T02:23:19;2.17;;;1.00;;
1360;SDS011;674;45.552;-122.600;2022-08-23T02:25:49;2.30;;;1.03;;
1360;SDS011;674;45.552;-122.600;2022-08-23T02:28:18;1.80;;;0.97;;
1360;SDS011;674;45.552;-122.600;2022-08-23T02:30:48;2.57;;;0.97;;
1360;SDS011;674;45.552;-122.600;2022-08-23T02:33:17;3.03;;;0.90;;
1360;SDS011;674;45.552;-122.600;2022-08-23T02:35:46;2.00;;;0.60;;
1360;SDS011;674;45.552;-122.600;2022-08-23T02:38:15;3.60;;;0.90;;
1360;SDS011;674;45.552;-122.600;2022-08-23T02:40:44;4.10;;;1.20;;
1360;SDS011;674;45.552;-122.600;2022-08-23T02:43:18;2.60;;;0.73;;
1360;SDS011;674;45.552;-122.600;2022-08-23T02:45:47;2.50;;;1.20;;
1360;SDS011;674;45.552;-122.600;2022-08-23T02:48:17;3.20;;;1.10;;
1360;SDS011;674;45.552;-122.600;2022-08-23T02:50:46;5.30;;;1.20;;
1360;SDS011;674;45.552;-122.600;2022-08-23T02:53:16;8.10;;;1.10;;
1360;SDS011;674;45.552;-122.600;2022-08-23T02:55:45;3.60;;;0.93;;
1360;SDS011;674;45.552;-122.600;2022-08-23T02:58:15;2.60;;;0.97;;
1360;SDS011;674;45.552;-122.600;2022-08-23T03:00:47;2.13;;;1.00;;
1360;SDS011;674;45.552;-122.600;2022-08-23T03:03:16;4.17;;;0.97;;
1360;SDS011;674;45.552;-122.600;2022-08-23T03:05:48;4.10;;;1.23;;
1360;SDS011;674;45.552;-122.600;2022-08-23T03:08:17;4.20;;;1.20;;
1360;SDS011;674;45.552;-122.600;2022-08-23T03:10:46;3.57;;;0.90;;
1360;SDS011;674;45.552;-122.600;2022-08-23T03:13:15;3.00;;;1.10;;
1360;SDS011;674;45.552;-122.600;2022-08-23T03:15:44;4.30;;;1.20;;
1360;SDS011;674;45.552;-122.600;2022-08-23T03:18:13;2.27;;;1.13;;
1360;SDS011;674;45.552;-122.600;2022-08-23T03:20:42;4.13;;;0.90;;
1360;SDS011;674;45.552;-122.600;2022-08-23T03:23:11;2.27;;;1.10;;
1360;SDS011;674;45.552;-122.600;2022-08-23T03:25:39;2.80;;;1.33;;
1360;SDS011;674;45.552;-122.600;2022-08-23T03:28:08;4.93;;;1.80;;
1360;SDS011;674;45.552;-122.600;2022-08-23T03:30:37;2.73;;;1.60;;
1360;SDS011;674;45.552;-122.600;2022-08-23T03:33:05;2.90;;;1.40;;
1360;SDS011;674;45.552;-122.600;2022-08-23T03:35:34;2.20;;;1.40;;
1360;SDS011;674;45.552;-122.600;2022-08-23T03:38:02;3.33;;;1.30;;
1360;SDS011;674;45.552;-122.600;2022-08-23T03:40:31;3.57;;;1.63;;
1360;SDS011;674;45.552;-122.600;2022-08-23T03:42:59;2.80;;;1.20;;
1360;SDS011;674;45.552;-122.600;2022-08-23T03:45:28;2.60;;;1.40;;
1360;SDS011;674;45.552;-122.600;2022-08-23T03:47:57;2.57;;;1.57;;
1360;SDS011;674;45.552;-122.600;2022-08-23T03:50:26;3.70;;;1.50;;
1360;SDS011;674;45.552;-122.600;2022-08-23T03:52:54;2.00;;;1.60;;
1360;SDS011;674;45.552;-122.600;2022-08-23T03:55:22;3.80;;;1.73;;
1360;SDS011;674;45.552;-122.600;2022-08-23T03:57:51;4.33;;;1.67;;
1360;SDS011;674;45.552;-122.600;2022-08-23T04:00:19;5.13;;;1.93;;
1360;SDS011;674;45.552;-122.600;2022-08-23T04:02:48;2.90;;;1.60;;
1360;SDS011;674;45.552;-122.600;2022-08-23T04:05:17;4.13;;;2.03;;
1360;SDS011;674;45.552;-122.600;2022-08-23T04:07:45;4.40;;;1.57;;
1360;SDS011;674;45.552;-122.600;2022-08-23T04:10:14;2.80;;;1.33;;
1360;SDS011;674;45.552;-122.600;2022-08-23T04:12:42;3.47;;;1.70;;
1360;SDS011;674;45.552;-122.600;2022-08-23T04:15:12;2.40;;;1.63;;
1360;SDS011;674;45.552;-122.600;2022-08-23T04:17:41;2.93;;;1.70;;
1360;SDS011;674;45.552;-122.600;2022-08-23T04:20:10;2.33;;;1.80;;
1360;SDS011;674;45.552;-122.600;2022-08-23T04:22:38;3.03;;;1.97;;
1360;SDS011;674;45.552;-122.600;2022-08-23T04:25:07;3.07;;;1.80;;
1360;SDS011;674;45.552;-122.600;2022-08-23T04:27:55;3.97;;;1.80;;
1360;SDS011;674;45.552;-122.600;2022-08-23T04:30:25;2.57;;;1.70;;
1360;SDS011;674;45.552;-122.600;2022-08-23T04:32:54;3.17;;;1.67;;
1360;SDS011;674;45.552;-122.600;2022-08-23T04:35:24;2.50;;;1.67;;
1360;SDS011;674;45.552;-122.600;2022-08-23T04:37:53;2.73;;;1.67;;
1360;SDS011;674;45.552;-122.600;2022-08-23T04:40:22;2.30;;;1.87;;
1360;SDS011;674;45.552;-122.600;2022-08-23T04:43:10;2.57;;;1.77;;
1360;SDS011;674;45.552;-122.600;2022-08-23T04:45:39;1.90;;;1.57;;
1360;SDS011;674;45.552;-122.600;2022-08-23T04:48:08;2.80;;;1.73;;
1360;SDS011;674;45.552;-122.600;2022-08-23T04:50:38;2.17;;;1.60;;
1360;SDS011;674;45.552;-122.600;2022-08-23T04:53:07;1.90;;;1.53;;
1360;SDS011;674;45.552;-122.600;2022-08-23T04:55:38;3.13;;;1.80;;
1360;SDS011;674;45.552;-122.600;2022-08-23T04:58:07;3.40;;;1.80;;
1360;SDS011;674;45.552;-122.600;2022-08-23T05:00:35;6.90;;;1.83;;
1360;SDS011;674;45.552;-122.600;2022-08-23T05:03:04;3.03;;;2.20;;
1360;SDS011;674;45.552;-122.600;2022-08-23T05:05:33;2.27;;;1.90;;
1360;SDS011;674;45.552;-122.600;2022-08-23T05:08:02;3.10;;;2.07;;
1360;SDS011;674;45.552;-122.600;2022-08-23T05:10:31;2.17;;;1.60;;
1360;SDS011;674;45.552;-122.600;2022-08-23T05:13:01;2.00;;;1.80;;
1360;SDS011;674;45.552;-122.600;2022-08-23T05:15:30;2.43;;;1.70;;
1360;SDS011;674;45.552;-122.600;2022-08-23T05:18:00;3.30;;;1.77;;
1360;SDS011;674;45.552;-122.600;2022-08-23T05:20:28;2.03;;;1.67;;
1360;SDS011;674;45.552;-122.600;2022-08-23T05:22:58;2.20;;;1.70;;
1360;SDS011;674;45.552;-122.600;2022-08-23T05:25:27;2.00;;;1.77;;
1360;SDS011;674;45.552;-122.600;2022-08-23T05:28:23;2.20;;;2.00;;
1360;SDS011;674;45.552;-122.600;2022-08-23T05:33:28;2.20;;;2.00;;
1360;SDS011;674;45.552;-122.600;2022-08-23T05:35:59;2.00;;;1.80;;
1360;SDS011;674;45.552;-122.600;2022-08-23T05:38:28;2.17;;;1.47;;
1360;SDS011;674;45.552;-122.600;2022-08-23T05:40:57;2.67;;;2.00;;
1360;SDS011;674;45.552;-122.600;2022-08-23T05:43:32;2.87;;;2.00;;
1360;SDS011;674;45.552;-122.600;2022-08-23T05:46:03;2.97;;;2.07;;
1360;SDS011;674;45.552;-122.600;2022-08-23T05:48:39;2.50;;;1.77;;
1360;SDS011;674;45.552;-122.600;2022-08-23T05:53:52;2.50;;;2.10;;
1360;SDS011;674;45.552;-122.600;2022-08-23T05:56:25;2.27;;;2.07;;
1360;SDS011;674;45.552;-122.600;2022-08-23T05:58:56;2.20;;;1.93;;
1360;SDS011;674;45.552;-122.600;2022-08-23T06:01:28;3.40;;;1.80;;
1360;SDS011;674;45.552;-122.600;2022-08-23T06:03:58;3.30;;;1.87;;
1360;SDS011;674;45.552;-122.600;2022-08-23T06:06:27;2.47;;;1.60;;
1360;SDS011;674;45.552;-122.600;2022-08-23T06:09:04;3.00;;;1.23;;
1360;SDS011;674;45.552;-122.600;2022-08-23T06:11:35;2.00;;;1.73;;
1360;SDS011;674;45.552;-122.600;2022-08-23T06:14:05;2.90;;;1.30;;
1360;SDS011;674;45.552;-122.600;2022-08-23T06:16:39;4.10;;;1.70;;
1360;SDS011;674;45.552;-122.600;2022-08-23T06:19:10;3.20;;;1.37;;
1360;SDS011;674;45.552;-122.600;2022-08-23T06:21:39;2.53;;;1.70;;
1360;SDS011;674;45.552;-122.600;2022-08-23T06:24:08;2.33;;;1.27;;
1360;SDS011;674;45.552;-122.600;2022-08-23T06:26:39;5.30;;;1.30;;
1360;SDS011;674;45.552;-122.600;2022-08-23T06:29:11;2.93;;;1.60;;
1360;SDS011;674;45.552;-122.600;2022-08-23T06:31:43;1.80;;;1.37;;
1360;SDS011;674;45.552;-122.600;2022-08-23T06:34:19;3.70;;;1.50;;
1360;SDS011;674;45.552;-122.600;2022-08-23T06:36:51;2.00;;;1.30;;
1360;SDS011;674;45.552;-122.600;2022-08-23T06:39:22;2.00;;;1.30;;
1360;SDS011;674;45.552;-122.600;2022-08-23T06:41:59;2.10;;;1.40;;
1360;SDS011;674;45.552;-122.600;2022-08-23T06:44:43;1.70;;;1.47;;
1360;SDS011;674;45.552;-122.600;2022-08-23T06:47:11;3.67;;;1.50;;
1360;SDS011;674;45.552;-122.600;2022-08-23T06:49:39;1.53;;;1.30;;
1360;SDS011;674;45.552;-122.600;2022-08-23T06:52:23;2.13;;;1.40;;
1360;SDS011;674;45.552;-122.600;2022-08-23T06:54:54;4.50;;;1.33;;
1360;SDS011;674;45.552;-122.600;2022-08-23T06:57:23;2.00;;;1.10;;
1360;SDS011;674;45.552;-122.600;2022-08-23T06:59:51;3.10;;;1.83;;
1360;SDS011;674;45.552;-122.600;2022-08-23T07:02:20;2.60;;;1.53;;
1360;SDS011;674;45.552;-122.600;2022-08-23T07:04:48;2.93;;;1.60;;
1360;SDS011;674;45.552;-122.600;2022-08-23T07:07:20;4.00;;;1.40;;
1360;SDS011;674;45.552;-122.600;2022-08-23T07:09:48;1.93;;;1.47;;
1360;SDS011;674;45.552;-122.600;2022-08-23T07:12:17;2.03;;;1.10;;
1360;SDS011;674;45.552;-122.600;2022-08-23T07:14:46;2.00;;;1.37;;
1360;SDS011;674;45.552;-122.600;2022-08-23T07:17:15;2.00;;;1.30;;
1360;SDS011;674;45.552;-122.600;2022-08-23T07:19:43;1.50;;;1.20;;
1360;SDS011;674;45.552;-122.600;2022-08-23T07:22:12;1.57;;;1.00;;
1360;SDS011;674;45.552;-122.600;2022-08-23T07:24:41;3.93;;;1.57;;
1360;SDS011;674;45.552;-122.600;2022-08-23T07:27:10;2.43;;;1.70;;
1360;SDS011;674;45.552;-122.600;2022-08-23T07:29:38;2.97;;;1.70;;
1360;SDS011;674;45.552;-122.600;2022-08-23T07:32:07;2.10;;;1.50;;
1360;SDS011;674;45.552;-122.600;2022-08-23T07:34:36;1.77;;;1.27;;
1360;SDS011;674;45.552;-122.600;2022-08-23T07:37:06;1.90;;;1.50;;
1360;SDS011;674;45.552;-122.600;2022-08-23T07:39:41;2.33;;;1.67;;
1360;SDS011;674;45.552;-122.600;2022-08-23T07:42:10;2.10;;;1.37;;
1360;SDS011;674;45.552;-122.600;2022-08-23T07:44:49;2.03;;;1.40;;
1360;SDS011;674;45.552;-122.600;2022-08-23T07:47:19;2.80;;;1.53;;
1360;SDS011;674;45.552;-122.600;2022-08-23T07:49:48;2.47;;;1.53;;
1360;SDS011;674;45.552;-122.600;2022-08-23T07:52:17;3.20;;;1.50;;
1360;SDS011;674;45.552;-122.600;2022-08-23T07:54:45;2.03;;;1.30;;
1360;SDS011;674;45.552;-122.600;2022-08-23T07:57:15;2.40;;;1.50;;
1360;SDS011;674;45.552;-122.600;2022-08-23T07:59:44;2.07;;;1.50;;
1360;SDS011;674;45.552;-122.600;2022-08-23T08:02:12;3.90;;;1.60;;
1360;SDS011;674;45.552;-122.600;2022-08-23T08:04:41;1.90;;;1.40;;
1360;SDS011;674;45.552;-122.600;2022-08-23T08:07:10;1.83;;;1.43;;
1360;SDS011;674;45.552;-122.600;2022-08-23T08:09:46;1.97;;;1.40;;
1360;SDS011;674;45.552;-122.600;2022-08-23T08:12:15;1.80;;;1.20;;
1360;SDS011;674;45.552;-122.600;2022-08-23T08:14:44;5.83;;;1.50;;
1360;SDS011;674;45.552;-122.600;2022-08-23T08:17:15;2.67;;;1.60;;
1360;SDS011;674;45.552;-122.600;2022-08-23T08:19:47;2.23;;;1.47;;
1360;SDS011;674;45.552;-122.600;2022-08-23T08:22:16;2.27;;;1.20;;
1360;SDS011;674;45.552;-122.600;2022-08-23T08:24:45;2.90;;;1.50;;
1360;SDS011;674;45.552;-122.600;2022-08-23T08:27:13;3.10;;;1.53;;
1360;SDS011;674;45.552;-122.600;2022-08-23T08:29:42;4.20;;;1.73;;
1360;SDS011;674;45.552;-122.600;2022-08-23T08:32:10;2.87;;;1.53;;
1360;SDS011;674;45.552;-122.600;2022-08-23T08:34:39;1.97;;;1.60;;
1360;SDS011;674;45.552;-122.600;2022-08-23T08:37:08;2.27;;;1.50;;
1360;SDS011;674;45.552;-122.600;2022-08-23T08:39:37;3.00;;;1.60;;
1360;SDS011;674;45.552;-122.600;2022-08-23T08:42:18;4.53;;;1.70;;
1360;SDS011;674;45.552;-122.600;2022-08-23T08:45:18;1.80;;;1.50;;
1360;SDS011;674;45.552;-122.600;2022-08-23T08:48:02;1.80;;;1.43;;
1360;SDS011;674;45.552;-122.600;2022-08-23T08:50:40;2.03;;;1.63;;
1360;SDS011;674;45.552;-122.600;2022-08-23T08:53:15;2.30;;;1.53;;
1360;SDS011;674;45.552;-122.600;2022-08-23T08:55:49;2.00;;;1.50;;
1360;SDS011;674;45.552;-122.600;2022-08-23T08:59:10;2.10;;;1.80;;
1360;SDS011;674;45.552;-122.600;2022-08-23T09:01:20;2.43;;;1.70;;
1360;SDS011;674;45.552;-122.600;2022-08-23T09:03:52;2.20;;;1.83;;
1360;SDS011;674;45.552;-122.600;2022-08-23T09:15:14;2.30;;;1.33;;
1360;SDS011;674;45.552;-122.600;2022-08-23T09:17:53;3.33;;;1.80;;
1360;SDS011;674;45.552;-122.600;2022-08-23T09:20:27;2.60;;;2.03;;
1360;SDS011;674;45.552;-122.600;2022-08-23T09:25:40;3.27;;;1.87;;
1360;SDS011;674;45.552;-122.600;2022-08-23T09:28:19;2.13;;;1.70;;
1360;SDS011;674;45.552;-122.600;2022-08-23T09:33:19;2.40;;;1.90;;
1360;SDS011;674;45.552;-122.600;2022-08-23T09:38:33;2.10;;;1.67;;
1360;SDS011;674;45.552;-122.600;2022-08-23T09:41:16;3.07;;;2.07;;
1360;SDS011;674;45.552;-122.600;2022-08-23T09:43:48;2.47;;;2.10;;
1360;SDS011;674;45.552;-122.600;2022-08-23T09:46:25;2.00;;;1.63;;
1360;SDS011;674;45.552;-122.600;2022-08-23T09:48:57;3.00;;;2.10;;
1360;SDS011;674;45.552;-122.600;2022-08-23T09:51:31;2.50;;;2.23;;
1360;SDS011;674;45.552;-122.600;2022-08-23T09:54:26;2.60;;;2.30;;
1360;SDS011;674;45.552;-122.600;2022-08-23T09:56:55;2.87;;;2.00;;
1360;SDS011;674;45.552;-122.600;2022-08-23T10:01:57;2.80;;;1.90;;
1360;SDS011;674;45.552;-122.600;2022-08-23T10:06:56;2.20;;;1.83;;
1360;SDS011;674;45.552;-122.600;2022-08-23T10:09:26;2.43;;;2.00;;
1360;SDS011;674;45.552;-122.600;2022-08-23T10:11:56;2.80;;;2.40;;
1360;SDS011;674;45.552;-122.600;2022-08-23T10:14:29;3.37;;;2.20;;
1360;SDS011;674;45.552;-122.600;2022-08-23T10:17:11;2.10;;;1.70;;
1360;SDS011;674;45.552;-122.600;2022-08-23T10:20:39;2.30;;;2.03;;
1360;SDS011;674;45.552;-122.600;2022-08-23T10:22:48;3.17;;;2.13;;
1360;SDS011;674;45.552;-122.600;2022-08-23T10:31:43;3.07;;;2.00;;
1360;SDS011;674;45.552;-122.600;2022-08-23T10:40:09;4.40;;;3.47;;
1360;SDS011;674;45.552;-122.600;2022-08-23T10:45:52;2.47;;;2.10;;
1360;SDS011;674;45.552;-122.600;2022-08-23T10:48:28;2.20;;;2.00;;
1360;SDS011;674;45.552;-122.600;2022-08-23T10:51:20;2.90;;;2.57;;
1360;SDS011;674;45.552;-122.600;2022-08-23T10:56:32;2.70;;;2.23;;
1360;SDS011;674;45.552;-122.600;2022-08-23T11:01:43;2.87;;;2.47;;
1360;SDS011;674;45.552;-122.600;2022-08-23T11:06:55;2.40;;;2.20;;
1360;SDS011;674;45.552;-122.600;2022-08-23T11:17:51;3.20;;;2.83;;
1360;SDS011;674;45.552;-122.600;2022-08-23T11:23:17;2.60;;;2.23;;
1360;SDS011;674;45.552;-122.600;2022-08-23T11:26:10;3.77;;;2.40;;
1360;SDS011;674;45.552;-122.600;2022-08-23T11:57:12;3.13;;;2.93;;
1360;SDS011;674;45.552;-122.600;2022-08-23T12:00:18;4.30;;;3.00;;
1360;SDS011;674;45.552;-122.600;2022-08-23T12:08:56;4.13;;;2.97;;
1360;SDS011;674;45.552;-122.600;2022-08-23T12:12:31;3.23;;;2.93;;
1360;SDS011;674;45.552;-122.600;2022-08-23T12:19:44;3.60;;;3.23;;
1360;SDS011;674;45.552;-122.600;2022-08-23T12:25:31;4.13;;;3.40;;
1360;SDS011;674;45.552;-122.600;2022-08-23T12:31:06;3.30;;;2.60;;
1360;SDS011;674;45.552;-122.600;2022-08-23T12:36:33;3.50;;;3.20;;
1360;SDS011;674;45.552;-122.600;2022-08-23T12:44:23;3.30;;;3.00;;
1360;SDS011;674;45.552;-122.600;2022-08-23T12:46:53;4.97;;;4.47;;
1360;SDS011;674;45.552;-122.600;2022-08-23T12:49:24;4.60;;;3.57;;
1360;SDS011;674;45.552;-122.600;2022-08-23T12:52:05;3.63;;;3.13;;
1360;SDS011;674;45.552;-122.600;2022-08-23T12:54:39;4.70;;;4.30;;
1360;SDS011;674;45.552;-122.600;2022-08-23T12:57:18;5.00;;;3.90;;
1360;SDS011;674;45.552;-122.600;2022-08-23T13:02:45;4.57;;;4.17;;
1360;SDS011;674;45.552;-122.600;2022-08-23T13:05:36;3.83;;;3.53;;
1360;SDS011;674;45.552;-122.600;2022-08-23T13:08:11;4.27;;;3.60;;
1360;SDS011;674;45.552;-122.600;2022-08-23T13:10:43;4.00;;;3.50;;
1360;SDS011;674;45.552;-122.600;2022-08-23T13:13:13;4.40;;;3.80;;
1360;SDS011;674;45.552;-122.600;2022-08-23T13:15:50;3.87;;;3.57;;
1360;SDS011;674;45.552;-122.600;2022-08-23T13:18:28;3.97;;;3.40;;
1360;SDS011;674;45.552;-122.600;2022-08-23T13:21:23;4.60;;;3.57;;
1360;SDS011;674;45.552;-122.600;2022-08-23T13:27:18;4.00;;;3.30;;
1360;SDS011;674;45.552;-122.600;2022-08-23T13:29:57;3.47;;;3.17;;
1360;SDS011;674;45.552;-122.600;2022-08-23T13:32:29;3.47;;;3.17;;
1360;SDS011;674;45.552;-122.600;2022-08-23T13:35:24;4.00;;;3.60;;
1360;SDS011;674;45.552;-122.600;2022-08-23T13:38:08;3.60;;;3.30;;
1360;SDS011;674;45.552;-122.600;2022-08-23T13:43:35;6.00;;;4.73;;
1360;SDS011;674;45.552;-122.600;2022-08-23T13:46:09;3.83;;;3.37;;
1360;SDS011;674;45.552;-122.600;2022-08-23T13:48:42;4.80;;;4.13;;
1360;SDS011;674;45.552;-122.600;2022-08-23T13:51:30;4.00;;;3.60;;
1360;SDS011;674;45.552;-122.600;2022-08-23T13:54:00;3.83;;;3.43;;
1360;SDS011;674;45.552;-122.600;2022-08-23T13:56:35;4.57;;;3.50;;
1360;SDS011;674;45.552;-122.600;2022-08-23T13:59:18;4.37;;;3.73;;
1360;SDS011;674;45.552;-122.600;2022-08-23T14:02:06;4.03;;;3.63;;
1360;SDS011;674;45.552;-122.600;2022-08-23T14:04:39;3.30;;;3.00;;
1360;SDS011;674;45.552;-122.600;2022-08-23T14:07:09;3.90;;;3.47;;
1360;SDS011;674;45.552;-122.600;2022-08-23T14:09:38;6.40;;;3.87;;
1360;SDS011;674;45.552;-122.600;2022-08-23T14:12:08;4.37;;;3.97;;
1360;SDS011;674;45.552;-122.600;2022-08-23T14:14:43;5.00;;;3.80;;
1360;SDS011;674;45.552;-122.600;2022-08-23T14:17:12;4.00;;;3.63;;
1360;SDS011;674;45.552;-122.600;2022-08-23T14:19:43;5.80;;;3.50;;
1360;SDS011;674;45.552;-122.600;2022-08-23T14:22:33;7.60;;;3.80;;
1360;SDS011;674;45.552;-122.600;2022-08-23T14:25:02;3.70;;;3.40;;
1360;SDS011;674;45.552;-122.600;2022-08-23T14:27:31;3.43;;;3.13;;
1360;SDS011;674;45.552;-122.600;2022-08-23T14:30:00;3.93;;;3.40;;
1360;SDS011;674;45.552;-122.600;2022-08-23T14:32:31;7.03;;;3.10;;
1360;SDS011;674;45.552;-122.600;2022-08-23T14:35:00;3.70;;;3.30;;
1360;SDS011;674;45.552;-122.600;2022-08-23T14:37:28;4.10;;;2.97;;
1360;SDS011;674;45.552;-122.600;2022-08-23T14:40:17;3.23;;;2.57;;
1360;SDS011;674;45.552;-122.600;2022-08-23T14:42:46;8.70;;;2.90;;
1360;SDS011;674;45.552;-122.600;2022-08-23T14:45:15;3.43;;;2.33;;
1360;SDS011;674;45.552;-122.600;2022-08-23T14:47:44;3.90;;;2.47;;
1360;SDS011;674;45.552;-122.600;2022-08-23T14:50:13;4.03;;;2.87;;
1360;SDS011;674;45.552;-122.600;2022-08-23T14:52:43;3.63;;;2.50;;
1360;SDS011;674;45.552;-122.600;2022-08-23T14:55:13;3.20;;;2.33;;
1360;SDS011;674;45.552;-122.600;2022-08-23T14:57:42;3.97;;;2.83;;
1360;SDS011;674;45.552;-122.600;2022-08-23T15:00:11;3.30;;;3.00;;
1360;SDS011;674;45.552;-122.600;2022-08-23T15:02:43;2.70;;;2.00;;
1360;SDS011;674;45.552;-122.600;2022-08-23T15:05:13;3.20;;;2.27;;
1360;SDS011;674;45.552;-122.600;2022-08-23T15:07:43;3.07;;;2.70;;
1360;SDS011;674;45.552;-122.600;2022-08-23T15:10:12;4.03;;;3.07;;
1360;SDS011;674;45.552;-122.600;2022-08-23T15:13:01;2.90;;;2.33;;
1360;SDS011;674;45.552;-122.600;2022-08-23T15:15:50;3.30;;;2.40;;
1360;SDS011;674;45.552;-122.600;2022-08-23T15:18:19;4.53;;;2.40;;
1360;SDS011;674;45.552;-122.600;2022-08-23T15:20:48;2.73;;;2.43;;
1360;SDS011;674;45.552;-122.600;2022-08-23T15:23:18;3.30;;;2.30;;
1360;SDS011;674;45.552;-122.600;2022-08-23T15:25:47;3.00;;;2.33;;
1360;SDS011;674;45.552;-122.600;2022-08-23T15:28:17;5.53;;;2.37;;
1360;SDS011;674;45.552;-122.600;2022-08-23T15:30:48;3.70;;;3.00;;
1360;SDS011;674;45.552;-122.600;2022-08-23T15:33:18;4.77;;;1.93;;
1360;SDS011;674;45.552;-122.600;2022-08-23T15:35:52;4.53;;;1.97;;
1360;SDS011;674;45.552;-122.600;2022-08-23T15:38:22;2.53;;;2.33;;
1360;SDS011;674;45.552;-122.600;2022-08-23T15:40:52;2.57;;;2.10;;
1360;SDS011;674;45.552;-122.600;2022-08-23T15:43:23;3.60;;;2.40;;
1360;SDS011;674;45.552;-122.600;2022-08-23T15:46:04;4.47;;;1.70;;
1360;SDS011;674;45.552;-122.600;2022-08-23T15:48:42;2.80;;;1.90;;
1360;SDS011;674;45.552;-122.600;2022-08-23T15:51:23;2.80;;;2.17;;
1360;SDS011;674;45.552;-122.600;2022-08-23T15:53:51;3.03;;;2.60;;
1360;SDS011;674;45.552;-122.600;2022-08-23T15:56:27;3.17;;;2.47;;
1360;SDS011;674;45.552;-122.600;2022-08-23T15:59:00;2.20;;;1.90;;
1360;SDS011;674;45.552;-122.600;2022-08-23T16:01:29;2.37;;;2.10;;
1360;SDS011;674;45.552;-122.600;2022-08-23T16:04:00;2.47;;;2.23;;
1360;SDS011;674;45.552;-122.600;2022-08-23T16:06:28;3.17;;;2.87;;
1360;SDS011;674;45.552;-122.600;2022-08-23T16:09:03;3.23;;;2.77;;
1360;SDS011;674;45.552;-122.600;2022-08-23T16:11:33;2.63;;;2.43;;
1360;SDS011;674;45.552;-122.600;2022-08-23T16:14:02;3.67;;;2.97;;
1360;SDS011;674;45.552;-122.600;2022-08-23T16:16:32;2.77;;;2.50;;
1360;SDS011;674;45.552;-122.600;2022-08-23T16:19:06;3.90;;;2.30;;
1360;SDS011;674;45.552;-122.600;2022-08-23T16:21:36;4.00;;;2.83;;
1360;SDS011;674;45.552;-122.600;2022-08-23T16:24:06;3.23;;;2.40;;
1360;SDS011;674;45.552;-122.600;2022-08-23T16:26:37;1.90;;;1.60;;
1360;SDS011;674;45.552;-122.600;2022-08-23T16:29:12;2.40;;;2.20;;
1360;SDS011;674;45.552;-122.600;2022-08-23T16:31:43;2.97;;;2.37;;
1360;SDS011;674;45.552;-122.600;2022-08-23T16:34:15;3.50;;;2.30;;
1360;SDS011;674;45.552;-122.600;2022-08-23T16:36:48;2.40;;;1.40;;
1360;SDS011;674;45.552;-122.600;2022-08-23T16:39:21;2.67;;;1.90;;
1360;SDS011;674;45.552;-122.600;2022-08-23T16:41:50;4.30;;;4.00;;
1360;SDS011;674;45.552;-122.600;2022-08-23T16:44:19;2.20;;;1.90;;
1360;SDS011;674;45.552;-122.600;2022-08-23T16:47:50;2.20;;;1.90;;
1360;SDS011;674;45.552;-122.600;2022-08-23T16:51:03;5.60;;;3.67;;
1360;SDS011;674;45.552;-122.600;2022-08-23T16:53:33;2.27;;;1.60;;
1360;SDS011;674;45.552;-122.600;2022-08-23T16:56:02;2.27;;;1.40;;
1360;SDS011;674;45.552;-122.600;2022-08-23T16:58:33;2.20;;;1.80;;
1360;SDS011;674;45.552;-122.600;2022-08-23T17:01:02;1.80;;;1.40;;
1360;SDS011;674;45.552;-122.600;2022-08-23T17:03:31;2.23;;;1.40;;
1360;SDS011;674;45.552;-122.600;2022-08-23T17:05:59;3.50;;;2.00;;
1360;SDS011;674;45.552;-122.600;2022-08-23T17:08:28;3.33;;;1.43;;
1360;SDS011;674;45.552;-122.600;2022-08-23T17:10:57;1.47;;;1.20;;
1360;SDS011;674;45.552;-122.600;2022-08-23T17:13:28;4.03;;;1.70;;
1360;SDS011;674;45.552;-122.600;2022-08-23T17:15:57;2.77;;;1.50;;
1360;SDS011;674;45.552;-122.600;2022-08-23T17:18:26;2.27;;;1.63;;
1360;SDS011;674;45.552;-122.600;2022-08-23T17:20:54;1.90;;;1.60;;
1360;SDS011;674;45.552;-122.600;2022-08-23T17:23:23;1.80;;;1.40;;
1360;SDS011;674;45.552;-122.600;2022-08-23T17:25:51;2.67;;;1.50;;
1360;SDS011;674;45.552;-122.600;2022-08-23T17:28:21;3.17;;;1.90;;
1360;SDS011;674;45.552;-122.600;2022-08-23T17:30:50;2.57;;;1.50;;